sensor_id;sensor_type;location;lat;lon;timestamp;pressure;altitude;pressure_sealevel;temperature;humidity
53089;BME280;38968;47.696;17.540;2022-12-15T00:02:50;9921686;;;4.34;60.68359
53089;BME280;38968;47.696;17.540;2022-12-15T00:07:49;9922888;;;4.47;60.58887
53089;BME280;38968;47.696;17.540;2022-12-15T00:12:49;9922877;;;4.67;60.28809
53089;BME280;38968;47.696;17.540;2022-12-15T00:17:49;9924947;;;4.75;59.81348
53089;BME280;38968;47.696;17.540;2022-12-15T00:22:49;9925033;;;4.75;59.82617
53089;BME280;38968;47.696;17.540;2022-12-15T00:27:49;9925381;;;4.65;60.11621
53089;BME280;38968;47.696;17.540;2022-12-15T00:32:49;9924689;;;4.67;60.60449
53089;BME280;38968;47.696;17.540;2022-12-15T00:37:49;9924516;;;4.68;60.75293
53089;BME280;38968;47.696;17.540;2022-12-15T00:42:49;9925898;;;4.67;61.20313
53089;BME280;38968;47.696;17.540;2022-12-15T00:47:49;9925720;;;4.78;60.86914
53089;BME280;38968;47.696;17.540;2022-12-15T00:52:49;9926672;;;4.76;60.99023
53089;BME280;38968;47.696;17.540;2022-12-15T00:57:50;9926162;;;4.54;61.86328
53089;BME280;38968;47.696;17.540;2022-12-15T01:02:50;9927106;;;4.69;61.7041
53089;BME280;38968;47.696;17.540;2022-12-15T01:07:49;9928312;;;4.72;61.36914
53089;BME280;38968;47.696;17.540;2022-12-15T01:12:49;9927450;;;4.74;61.64453
53089;BME280;38968;47.696;17.540;2022-12-15T01:17:49;9925981;;;4.76;61.4541
53089;BME280;38968;47.696;17.540;2022-12-15T01:22:51;9924089;;;4.61;61.70313
53089;BME280;38968;47.696;17.540;2022-12-15T01:27:50;9924778;;;4.65;61.79785
53089;BME280;38968;47.696;17.540;2022-12-15T01:32:50;9924959;;;4.43;62.56934
53089;BME280;38968;47.696;17.540;2022-12-15T01:37:49;9924273;;;4.26;62.86133
53089;BME280;38968;47.696;17.540;2022-12-15T01:42:50;9925395;;;4.33;62.96094
53089;BME280;38968;47.696;17.540;2022-12-15T01:47:50;9925228;;;4.11;63.69434
53089;BME280;38968;47.696;17.540;2022-12-15T01:52:49;9922804;;;4.41;62.90527
53089;BME280;38968;47.696;17.540;2022-12-15T01:57:51;9924962;;;4.35;63.28027
53089;BME280;38968;47.696;17.540;2022-12-15T02:02:50;9926694;;;4.07;63.99512
53089;BME280;38968;47.696;17.540;2022-12-15T02:07:49;9926002;;;4.14;63.54199
53089;BME280;38968;47.696;17.540;2022-12-15T02:12:53;9926520;;;4.08;63.81445
53089;BME280;38968;47.696;17.540;2022-12-15T02:18:09;9927898;;;4.19;63.89941
53089;BME280;38968;47.696;17.540;2022-12-15T02:27:59;9928415;;;4.28;63.29199
53089;BME280;38968;47.696;17.540;2022-12-15T02:33:14;9928325;;;4.4;62.89258
53089;BME280;38968;47.696;17.540;2022-12-15T02:37:50;9930144;;;3.79;64.50391
53089;BME280;38968;47.696;17.540;2022-12-15T02:42:51;9933505;;;3.97;64.0127
53089;BME280;38968;47.696;17.540;2022-12-15T02:48:17;9933764;;;3.94;64.60645
53089;BME280;38968;47.696;17.540;2022-12-15T02:58:20;9935659;;;4.23;64.00781
53089;BME280;38968;47.696;17.540;2022-12-15T03:02:53;9935830;;;4.35;63.47168
53089;BME280;38968;47.696;17.540;2022-12-15T03:07:51;9937038;;;4.41;63.79688
53089;BME280;38968;47.696;17.540;2022-12-15T03:12:49;9937984;;;4.43;63.33691
53089;BME280;38968;47.696;17.540;2022-12-15T03:17:49;9937730;;;3.81;65.1709
53089;BME280;38968;47.696;17.540;2022-12-15T03:22:49;9937209;;;4.46;63.56738
53089;BME280;38968;47.696;17.540;2022-12-15T03:27:49;9938244;;;4.42;63.01953
53089;BME280;38968;47.696;17.540;2022-12-15T03:32:49;9939020;;;4.48;63.46875
53089;BME280;38968;47.696;17.540;2022-12-15T03:37:49;9940919;;;4.25;63.53711
53089;BME280;38968;47.696;17.540;2022-12-15T03:42:49;9939280;;;4.26;63.70703
53089;BME280;38968;47.696;17.540;2022-12-15T03:47:50;9938934;;;3.79;65.16797
53089;BME280;38968;47.696;17.540;2022-12-15T03:52:50;9939109;;;3.93;65.07813
53089;BME280;38968;47.696;17.540;2022-12-15T03:57:50;9939539;;;3.96;64.48535
53089;BME280;38968;47.696;17.540;2022-12-15T04:02:50;9941262;;;3.89;64.93652
53089;BME280;38968;47.696;17.540;2022-12-15T04:07:49;9941692;;;3.83;64.73535
53089;BME280;38968;47.696;17.540;2022-12-15T04:12:59;9942460;;;3.46;66.28809
53089;BME280;38968;47.696;17.540;2022-12-15T04:17:49;9941697;;;4.1;64.38184
53089;BME280;38968;47.696;17.540;2022-12-15T04:22:50;9941006;;;4.11;63.875
53089;BME280;38968;47.696;17.540;2022-12-15T04:27:49;9940748;;;4.15;64.1875
53089;BME280;38968;47.696;17.540;2022-12-15T04:32:49;9942298;;;4.37;63.92578
53089;BME280;38968;47.696;17.540;2022-12-15T04:37:49;9942300;;;4.11;63.91992
53089;BME280;38968;47.696;17.540;2022-12-15T04:42:49;9942905;;;4.28;63.91211
53089;BME280;38968;47.696;17.540;2022-12-15T04:47:49;9940659;;;4.58;63.57324
53089;BME280;38968;47.696;17.540;2022-12-15T04:52:49;9942123;;;4.55;62.93848
53089;BME280;38968;47.696;17.540;2022-12-15T04:57:49;9942210;;;4.5;63.34668
53089;BME280;38968;47.696;17.540;2022-12-15T05:02:50;9943762;;;4.67;62.59277
53089;BME280;38968;47.696;17.540;2022-12-15T05:07:49;9945316;;;4.65;62.6582
53089;BME280;38968;47.696;17.540;2022-12-15T05:12:49;9945577;;;4.64;62.00195
53089;BME280;38968;47.696;17.540;2022-12-15T05:17:49;9943414;;;4.78;62.06738
53089;BME280;38968;47.696;17.540;2022-12-15T05:22:54;9944195;;;4.65;62.4873
53089;BME280;38968;47.696;17.540;2022-12-15T05:27:49;9944105;;;4.84;62.21191
53089;BME280;38968;47.696;17.540;2022-12-15T05:32:49;9945485;;;4.8;61.44824
53089;BME280;38968;47.696;17.540;2022-12-15T05:37:49;9945403;;;4.49;62.34082
53089;BME280;38968;47.696;17.540;2022-12-15T05:42:49;9948942;;;4.41;62.52148
53089;BME280;38968;47.696;17.540;2022-12-15T05:47:50;9948078;;;4.16;63.72461
53089;BME280;38968;47.696;17.540;2022-12-15T05:52:50;9949719;;;4.53;62.46094
53089;BME280;38968;47.696;17.540;2022-12-15T05:57:52;9951528;;;4.5;62.10547
53089;BME280;38968;47.696;17.540;2022-12-15T06:02:49;9950581;;;4.46;62.49414
53089;BME280;38968;47.696;17.540;2022-12-15T06:07:49;9951704;;;4.51;62.78418
53089;BME280;38968;47.696;17.540;2022-12-15T06:12:49;9953169;;;4.78;62.27051
53089;BME280;38968;47.696;17.540;2022-12-15T06:17:49;9953773;;;4.94;61.6377
53089;BME280;38968;47.696;17.540;2022-12-15T06:22:49;9951530;;;4.87;61.42285
53089;BME280;38968;47.696;17.540;2022-12-15T06:27:49;9950492;;;4.9;61.33789
53089;BME280;38968;47.696;17.540;2022-12-15T06:32:49;9951184;;;4.71;61.44727
53089;BME280;38968;47.696;17.540;2022-12-15T06:37:50;9955242;;;4.69;61.7832
53089;BME280;38968;47.696;17.540;2022-12-15T06:42:49;9955933;;;4.76;61.91699
53089;BME280;38968;47.696;17.540;2022-12-15T06:47:49;9956019;;;4.93;61.53516
53089;BME280;38968;47.696;17.540;2022-12-15T06:52:49;9957916;;;4.86;61.41211
53089;BME280;38968;47.696;17.540;2022-12-15T06:57:49;9960249;;;4.88;61.19922
53089;BME280;38968;47.696;17.540;2022-12-15T07:02:49;9958264;;;4.93;61.77246
53089;BME280;38968;47.696;17.540;2022-12-15T07:07:51;9959645;;;4.87;61.82031
53089;BME280;38968;47.696;17.540;2022-12-15T07:12:49;9960162;;;4.93;62.00977
53089;BME280;38968;47.696;17.540;2022-12-15T07:17:49;9958089;;;5.07;61.87207
53089;BME280;38968;47.696;17.540;2022-12-15T07:22:50;9960334;;;5.23;61.55566
53089;BME280;38968;47.696;17.540;2022-12-15T07:27:49;9963356;;;5.24;61.04785
53089;BME280;38968;47.696;17.540;2022-12-15T07:32:49;9964391;;;5.27;60.9834
53089;BME280;38968;47.696;17.540;2022-12-15T07:37:49;9963616;;;5.41;61.02637
53089;BME280;38968;47.696;17.540;2022-12-15T07:42:49;9966380;;;5.38;60.89648
53089;BME280;38968;47.696;17.540;2022-12-15T07:47:50;9968455;;;5.41;60.74219
53089;BME280;38968;47.696;17.540;2022-12-15T07:52:49;9968625;;;5.43;60.37207
53089;BME280;38968;47.696;17.540;2022-12-15T07:57:49;9968712;;;5.25;60.31348
53089;BME280;38968;47.696;17.540;2022-12-15T08:02:49;9969661;;;5.16;61.65723
53089;BME280;38968;47.696;17.540;2022-12-15T08:07:49;9969403;;;4.99;61.63379
53089;BME280;38968;47.696;17.540;2022-12-15T08:12:49;9970181;;;5.25;61.09375
53089;BME280;38968;47.696;17.540;2022-12-15T08:17:49;9973464;;;5.3;60.73926
53089;BME280;38968;47.696;17.540;2022-12-15T08:22:50;9972427;;;5.38;60.97656
53089;BME280;38968;47.696;17.540;2022-12-15T08:27:50;9973983;;;5.56;60.24316
53089;BME280;38968;47.696;17.540;2022-12-15T08:32:49;9971649;;;5.5;60.36035
53089;BME280;38968;47.696;17.540;2022-12-15T08:37:49;9971133;;;5.52;60.46387
53089;BME280;38968;47.696;17.540;2022-12-15T08:42:50;9970956;;;5.69;60.04688
53089;BME280;38968;47.696;17.540;2022-12-15T08:47:49;9971819;;;5.8;59.81348
53089;BME280;38968;47.696;17.540;2022-12-15T08:52:49;9973031;;;5.74;59.61133
53089;BME280;38968;47.696;17.540;2022-12-15T08:57:50;9973898;;;5.7;59.50391
53089;BME280;38968;47.696;17.540;2022-12-15T09:02:50;9973809;;;5.68;59.63672
53089;BME280;38968;47.696;17.540;2022-12-15T09:07:56;9973725;;;5.7;59.75293
53089;BME280;38968;47.696;17.540;2022-12-15T09:12:49;9972081;;;5.71;59.91309
53089;BME280;38968;47.696;17.540;2022-12-15T09:17:49;9973982;;;5.84;59.64746
53089;BME280;38968;47.696;17.540;2022-12-15T09:22:49;9973982;;;5.84;59.21582
53089;BME280;38968;47.696;17.540;2022-12-15T09:27:49;9973980;;;5.81;59.59766
53089;BME280;38968;47.696;17.540;2022-12-15T09:32:49;9972254;;;5.95;59.1416
53089;BME280;38968;47.696;17.540;2022-12-15T09:37:49;9971044;;;5.82;59.61035
53089;BME280;38968;47.696;17.540;2022-12-15T09:42:54;9969486;;;6;59.46582
53089;BME280;38968;47.696;17.540;2022-12-15T09:52:51;9970781;;;6.06;59.11133
53089;BME280;38968;47.696;17.540;2022-12-15T09:58:05;9972078;;;6.11;58.9248
53089;BME280;38968;47.696;17.540;2022-12-15T10:03:11;9972942;;;6.08;58.6377
53089;BME280;38968;47.696;17.540;2022-12-15T10:07:50;9975019;;;5.85;58.78906
53089;BME280;38968;47.696;17.540;2022-12-15T10:12:51;9975194;;;5.82;58.79395
53089;BME280;38968;47.696;17.540;2022-12-15T10:18:01;9975886;;;5.97;58.80371
53089;BME280;38968;47.696;17.540;2022-12-15T10:22:49;9974934;;;6.05;58.83887
53089;BME280;38968;47.696;17.540;2022-12-15T10:32:56;9973030;;;5.98;58.39746
53089;BME280;38968;47.696;17.540;2022-12-15T10:37:49;9972855;;;6.14;58.61133
53089;BME280;38968;47.696;17.540;2022-12-15T10:42:49;9973892;;;6.14;58.67871
53089;BME280;38968;47.696;17.540;2022-12-15T10:47:57;9974587;;;6.07;58.64746
53089;BME280;38968;47.696;17.540;2022-12-15T10:52:49;9975017;;;6.19;58.10742
53089;BME280;38968;47.696;17.540;2022-12-15T10:58:00;9974844;;;6.15;58.01172
53089;BME280;38968;47.696;17.540;2022-12-15T11:02:49;9974501;;;6.07;58.28516
53089;BME280;38968;47.696;17.540;2022-12-15T11:07:51;9974848;;;6;58.17188
53089;BME280;38968;47.696;17.540;2022-12-15T11:13:02;9974758;;;6.1;58.11816
53089;BME280;38968;47.696;17.540;2022-12-15T11:27:50;9974664;;;6.38;57.82715
53089;BME280;38968;47.696;17.540;2022-12-15T11:32:51;9974055;;;6.49;57.7168
53089;BME280;38968;47.696;17.540;2022-12-15T11:47:59;9974064;;;6.24;57.97852
53089;BME280;38968;47.696;17.540;2022-12-15T11:52:59;9974576;;;6.44;57.8125
53089;BME280;38968;47.696;17.540;2022-12-15T12:07:55;9972758;;;6.44;58.3916
53089;BME280;38968;47.696;17.540;2022-12-15T12:22:58;9969730;;;6.38;57.98633
53089;BME280;38968;47.696;17.540;2022-12-15T12:28:04;9972239;;;6.39;57.89746
53089;BME280;38968;47.696;17.540;2022-12-15T12:33:02;9973108;;;6.32;58.14844
53089;BME280;38968;47.696;17.540;2022-12-15T12:38:03;9973284;;;6.29;57.83789
53089;BME280;38968;47.696;17.540;2022-12-15T12:42:55;9971808;;;6.41;58.02539
53089;BME280;38968;47.696;17.540;2022-12-15T12:47:51;9970944;;;6.41;57.66016
53089;BME280;38968;47.696;17.540;2022-12-15T12:52:56;9971898;;;6.27;57.9707
53089;BME280;38968;47.696;17.540;2022-12-15T12:57:49;9971384;;;6.1;58.40234
53089;BME280;38968;47.696;17.540;2022-12-15T13:12:54;9972765;;;6.26;58.55957
53089;BME280;38968;47.696;17.540;2022-12-15T13:17:50;9973286;;;6.2;58.14258
53089;BME280;38968;47.696;17.540;2022-12-15T13:22:49;9973456;;;6.27;58.33398
53089;BME280;38968;47.696;17.540;2022-12-15T13:27:51;9973891;;;6.15;58.6377
53089;BME280;38968;47.696;17.540;2022-12-15T13:32:53;9974148;;;6.26;58.40234
53089;BME280;38968;47.696;17.540;2022-12-15T13:37:57;9974061;;;6.27;58.14063
53089;BME280;38968;47.696;17.540;2022-12-15T13:43:07;9974500;;;6.11;58.2793
53089;BME280;38968;47.696;17.540;2022-12-15T13:47:52;9973459;;;6.24;58.18262
53089;BME280;38968;47.696;17.540;2022-12-15T13:52:50;9974066;;;6.1;58.3125
53089;BME280;38968;47.696;17.540;2022-12-15T14:02:49;9974158;;;5.94;59.13965
53089;BME280;38968;47.696;17.540;2022-12-15T14:12:50;9973983;;;5.87;60.05957
53089;BME280;38968;47.696;17.540;2022-12-15T14:17:51;9975280;;;5.87;59.94629
53089;BME280;38968;47.696;17.540;2022-12-15T14:22:49;9975711;;;5.89;60.06348
53089;BME280;38968;47.696;17.540;2022-12-15T14:27:49;9974934;;;5.97;59.88086
53089;BME280;38968;47.696;17.540;2022-12-15T14:32:58;9976578;;;5.92;59.58984
53089;BME280;38968;47.696;17.540;2022-12-15T14:37:50;9977789;;;5.91;59.51074
53089;BME280;38968;47.696;17.540;2022-12-15T14:42:51;9978220;;;5.77;59.87598
53089;BME280;38968;47.696;17.540;2022-12-15T14:47:56;9974155;;;5.88;59.61914
53089;BME280;38968;47.696;17.540;2022-12-15T14:52:54;9974503;;;5.59;60.12402
53089;BME280;38968;47.696;17.540;2022-12-15T14:57:50;9973897;;;5.71;60.60449
53089;BME280;38968;47.696;17.540;2022-12-15T15:07:54;9971477;;;5.45;60.96289
53089;BME280;38968;47.696;17.540;2022-12-15T15:12:49;9970180;;;5.51;60.97168
53089;BME280;38968;47.696;17.540;2022-12-15T15:17:53;9973120;;;5.47;60.71777
53089;BME280;38968;47.696;17.540;2022-12-15T15:23:09;9973292;;;5.6;60.64453
53089;BME280;38968;47.696;17.540;2022-12-15T15:27:49;9972169;;;5.59;60.58789
53089;BME280;38968;47.696;17.540;2022-12-15T15:32:56;9972602;;;5.42;60.28125
53089;BME280;38968;47.696;17.540;2022-12-15T15:37:51;9971649;;;5.5;60.71191
53089;BME280;38968;47.696;17.540;2022-12-15T15:42:49;9972859;;;5.56;60.82129
53089;BME280;38968;47.696;17.540;2022-12-15T15:47:50;9974330;;;5.34;60.85742
53089;BME280;38968;47.696;17.540;2022-12-15T15:52:50;9973638;;;5.48;61.07031
53089;BME280;38968;47.696;17.540;2022-12-15T15:57:49;9972602;;;5.53;60.91895
53089;BME280;38968;47.696;17.540;2022-12-15T16:02:49;9972169;;;5.49;60.45996
53089;BME280;38968;47.696;17.540;2022-12-15T16:07:49;9971302;;;5.15;61.70117
53089;BME280;38968;47.696;17.540;2022-12-15T16:12:53;9970952;;;4.85;62.56348
53089;BME280;38968;47.696;17.540;2022-12-15T16:17:49;9971562;;;5.07;62.74219
53089;BME280;38968;47.696;17.540;2022-12-15T16:22:52;9970786;;;5.44;61.6748
53089;BME280;38968;47.696;17.540;2022-12-15T16:27:49;9972515;;;5.54;61.28125
53089;BME280;38968;47.696;17.540;2022-12-15T16:32:50;9975367;;;5.65;60.92383
53089;BME280;38968;47.696;17.540;2022-12-15T16:37:50;9975193;;;5.73;60.5498
53089;BME280;38968;47.696;17.540;2022-12-15T16:42:57;9974675;;;5.77;60.20508
53089;BME280;38968;47.696;17.540;2022-12-15T16:47:50;9973294;;;5.58;60.04297
53089;BME280;38968;47.696;17.540;2022-12-15T16:52:51;9973120;;;5.7;60.43262
53089;BME280;38968;47.696;17.540;2022-12-15T16:57:50;9972602;;;5.63;60.45801
53089;BME280;38968;47.696;17.540;2022-12-15T17:02:50;9971993;;;5.69;60.0918
53089;BME280;38968;47.696;17.540;2022-12-15T17:07:52;9973120;;;5.42;61.02832
53089;BME280;38968;47.696;17.540;2022-12-15T17:12:50;9973378;;;5.56;60.57227
53089;BME280;38968;47.696;17.540;2022-12-15T17:17:50;9972602;;;5.7;60.7959
53089;BME280;38968;47.696;17.540;2022-12-15T17:23:03;9971300;;;5.8;60.08496
53089;BME280;38968;47.696;17.540;2022-12-15T17:27:51;9971477;;;5.75;59.94238
53089;BME280;38968;47.696;17.540;2022-12-15T17:32:49;9971910;;;5.64;60.33496
53089;BME280;38968;47.696;17.540;2022-12-15T17:37:50;9972427;;;5.73;60.81055
53089;BME280;38968;47.696;17.540;2022-12-15T17:42:50;9972514;;;5.71;60.86328
53089;BME280;38968;47.696;17.540;2022-12-15T17:47:50;9972686;;;5.61;61.05469
53089;BME280;38968;47.696;17.540;2022-12-15T17:52:50;9971649;;;5.72;61.22852
53089;BME280;38968;47.696;17.540;2022-12-15T17:57:50;9973467;;;5.46;61.34961
53089;BME280;38968;47.696;17.540;2022-12-15T18:02:51;9972773;;;5.61;61.99609
53089;BME280;38968;47.696;17.540;2022-12-15T18:07:51;9972427;;;5.73;61.50195
53089;BME280;38968;47.696;17.540;2022-12-15T18:12:49;9971216;;;5.78;61.24902
53089;BME280;38968;47.696;17.540;2022-12-15T18:17:50;9971217;;;5.81;61.47852
53089;BME280;38968;47.696;17.540;2022-12-15T18:22:51;9970262;;;5.8;61.10547
53089;BME280;38968;47.696;17.540;2022-12-15T18:27:50;9970695;;;5.84;61.4502
53089;BME280;38968;47.696;17.540;2022-12-15T18:32:51;9970264;;;5.93;61.14355
53089;BME280;38968;47.696;17.540;2022-12-15T18:37:50;9970351;;;5.96;60.99121
53089;BME280;38968;47.696;17.540;2022-12-15T18:42:50;9969398;;;6.01;61.24707
53089;BME280;38968;47.696;17.540;2022-12-15T18:47:51;9969313;;;5.99;61.30176
53089;BME280;38968;47.696;17.540;2022-12-15T18:52:57;9967325;;;5.94;61.56543
53089;BME280;38968;47.696;17.540;2022-12-15T18:57:50;9968359;;;5.9;61.94629
53089;BME280;38968;47.696;17.540;2022-12-15T19:02:51;9967667;;;5.99;61.90039
53089;BME280;38968;47.696;17.540;2022-12-15T19:07:50;9967844;;;5.81;62.61133
53089;BME280;38968;47.696;17.540;2022-12-15T19:12:49;9967756;;;5.84;63.2041
53089;BME280;38968;47.696;17.540;2022-12-15T19:17:49;9968622;;;5.78;63.85254
53089;BME280;38968;47.696;17.540;2022-12-15T19:22:50;9968706;;;5.89;64.04004
53089;BME280;38968;47.696;17.540;2022-12-15T19:27:50;9965853;;;5.88;64.19531
53089;BME280;38968;47.696;17.540;2022-12-15T19:32:50;9965769;;;5.81;64.45605
53089;BME280;38968;47.696;17.540;2022-12-15T19:37:50;9966462;;;5.67;65.3418
53089;BME280;38968;47.696;17.540;2022-12-15T19:42:50;9965336;;;5.79;65.70996
53089;BME280;38968;47.696;17.540;2022-12-15T19:47:50;9964730;;;5.8;65.50781
53089;BME280;38968;47.696;17.540;2022-12-15T19:52:51;9964729;;;5.84;65.58203
53089;BME280;38968;47.696;17.540;2022-12-15T19:57:51;9964470;;;5.83;65.46777
53089;BME280;38968;47.696;17.540;2022-12-15T20:02:51;9964556;;;5.88;65.58789
53089;BME280;38968;47.696;17.540;2022-12-15T20:07:51;9963777;;;5.89;65.60156
53089;BME280;38968;47.696;17.540;2022-12-15T20:12:50;9963603;;;5.9;65.66895
53089;BME280;38968;47.696;17.540;2022-12-15T20:17:50;9962480;;;5.89;65.90723
53089;BME280;38968;47.696;17.540;2022-12-15T20:22:52;9961445;;;5.79;65.94727
53089;BME280;38968;47.696;17.540;2022-12-15T20:27:50;9960923;;;5.96;66.18848
53089;BME280;38968;47.696;17.540;2022-12-15T20:32:50;9959369;;;5.94;66.26465
53089;BME280;38968;47.696;17.540;2022-12-15T20:37:50;9957812;;;5.91;66.2041
53089;BME280;38968;47.696;17.540;2022-12-15T20:42:51;9958673;;;5.9;66.21289
53089;BME280;38968;47.696;17.540;2022-12-15T20:47:51;9957291;;;5.89;66.33691
53089;BME280;38968;47.696;17.540;2022-12-15T20:52:51;9955562;;;5.88;66.66406
53089;BME280;38968;47.696;17.540;2022-12-15T20:57:49;9955739;;;5.82;66.67578
53089;BME280;38968;47.696;17.540;2022-12-15T21:02:50;9956342;;;5.84;66.94922
53089;BME280;38968;47.696;17.540;2022-12-15T21:07:49;9955911;;;5.83;67.11914
53089;BME280;38968;47.696;17.540;2022-12-15T21:12:49;9954527;;;5.82;67.28711
53089;BME280;38968;47.696;17.540;2022-12-15T21:17:51;9954438;;;5.89;66.95898
53089;BME280;38968;47.696;17.540;2022-12-15T21:22:49;9953230;;;5.82;67.40039
53089;BME280;38968;47.696;17.540;2022-12-15T21:27:49;9952537;;;5.84;67.2334
53089;BME280;38968;47.696;17.540;2022-12-15T21:32:49;9950723;;;5.78;67.86816
53089;BME280;38968;47.696;17.540;2022-12-15T21:37:49;9952538;;;5.83;68.28418
53089;BME280;38968;47.696;17.540;2022-12-15T21:42:50;9952973;;;5.78;68.55762
53089;BME280;38968;47.696;17.540;2022-12-15T21:47:50;9952362;;;5.93;68.26367
53089;BME280;38968;47.696;17.540;2022-12-15T21:52:50;9951412;;;5.85;68.12988
53089;BME280;38968;47.696;17.540;2022-12-15T21:57:49;9950198;;;5.9;68.1709
53089;BME280;38968;47.696;17.540;2022-12-15T22:02:51;9948392;;;5.72;68.67383
53089;BME280;38968;47.696;17.540;2022-12-15T22:07:50;9947262;;;5.93;68.80762
53089;BME280;38968;47.696;17.540;2022-12-15T22:12:51;9946919;;;5.82;68.93652
53089;BME280;38968;47.696;17.540;2022-12-15T22:17:49;9946222;;;5.9;68.73438
53089;BME280;38968;47.696;17.540;2022-12-15T22:22:50;9945187;;;5.93;68.77441
53089;BME280;38968;47.696;17.540;2022-12-15T22:27:49;9943800;;;5.96;69.53613
53089;BME280;38968;47.696;17.540;2022-12-15T22:32:50;9943810;;;5.76;69.70605
53089;BME280;38968;47.696;17.540;2022-12-15T22:37:50;9943553;;;5.71;70.12891
53089;BME280;38968;47.696;17.540;2022-12-15T22:42:52;9943637;;;5.73;70.33496
53089;BME280;38968;47.696;17.540;2022-12-15T22:47:50;9944320;;;5.91;69.58496
53089;BME280;38968;47.696;17.540;2022-12-15T22:52:50;9942850;;;5.92;69.42676
53089;BME280;38968;47.696;17.540;2022-12-15T22:57:57;9942252;;;5.77;69.87891
53089;BME280;38968;47.696;17.540;2022-12-15T23:02:49;9941898;;;5.95;69.36523
53089;BME280;38968;47.696;17.540;2022-12-15T23:07:50;9942500;;;6;69.37305
53089;BME280;38968;47.696;17.540;2022-12-15T23:12:49;9941372;;;6.06;69.14453
53089;BME280;38968;47.696;17.540;2022-12-15T23:17:49;9940428;;;5.89;69.34473
53089;BME280;38968;47.696;17.540;2022-12-15T23:22:49;9940777;;;5.87;69.80371
53089;BME280;38968;47.696;17.540;2022-12-15T23:27:49;9940173;;;5.83;70.00195
53089;BME280;38968;47.696;17.540;2022-12-15T23:32:50;9940515;;;5.95;69.69141
53089;BME280;38968;47.696;17.540;2022-12-15T23:37:49;9939488;;;5.73;70.33496
53089;BME280;38968;47.696;17.540;2022-12-15T23:42:50;9939302;;;5.97;69.94434
53089;BME280;38968;47.696;17.540;2022-12-15T23:47:49;9938952;;;6.02;69.64746
53089;BME280;38968;47.696;17.540;2022-12-15T23:52:50;9939025;;;6.16;69.13867
53089;BME280;38968;47.696;17.540;2022-12-15T23:57:49;9938080;;;6.09;69.50195
